Etusivu
METAR-TAF:

METAR-TAF

Lentoasemat :

Hasvik, Norja

Leveyspiiri: 70-29N, Pituuspiiri: 022-09E, korkeus merenpinnasta: 10 m

Tämänhetkinen sää

Tämä raportti tehtiin 51 minuuttia sitten, kello 05.50 UTC
Tuuli 10 kn idästä/kaakosta
Lämpötila 9°C
Kosteus 76%
Ilmanpaine 1019 hPa
Näkyvyys 10 km tai enemmän
Muutamia pilviä 2400 ft:n korkeudessa
Hajanaisia pilviä 5500 ft:n korkeudessa

METAR: ENHK 240550Z 12010KT 9999 FEW024 SCT055 09/05 Q1019

Aika: 08:41 (06:41 UTC)


TAF: puuttuu

Säähavainnot ja -ennusteet yli 4000 lentoasemalta (METAR- ja TAF-raportit).

Käytössä olevat sääasemat on merkitty karttaan keltaisilla ja punaisilla pisteillä.

Aseta hiiri pisteen päälle nähdäksesi sääaseman nimen.

Klikkaa sitten nähdäksesi säähavainnot ja -ennusteet.

Kartan vaihtaminen: klikkaa mustalla rastilla varustettuja vihreitä pisteitä, niin voit zoomata sisään; viivalla varustettua vihreää pistettä, niin voit zoomata ulos tai vihreitä nuolia, niin pääset viereisille kartoille.


METAR-TAF: